createdAt,value
2023-05-18T00:00:06.000Z,275.46
2023-05-18T00:01:33.000Z,275.4
2023-05-18T00:03:39.000Z,275.52
2023-05-18T00:05:06.000Z,275.77
2023-05-18T00:07:12.000Z,275.84
2023-05-18T00:08:38.000Z,275.77
2023-05-18T00:10:44.000Z,275.77
2023-05-18T00:12:11.000Z,275.71
2023-05-18T00:14:17.000Z,275.84
2023-05-18T00:15:44.000Z,275.77
2023-05-18T00:17:50.000Z,275.65
2023-05-18T00:20:41.000Z,275.34
2023-05-18T00:22:07.000Z,275.46
2023-05-18T00:24:13.000Z,275.52
2023-05-18T00:25:40.000Z,275.46
2023-05-18T00:27:46.000Z,275.34
2023-05-18T00:29:12.000Z,275.34
2023-05-18T00:31:19.000Z,275.4
2023-05-18T00:32:45.000Z,275.46
2023-05-18T00:34:51.000Z,275.4
2023-05-18T00:36:18.000Z,275.52
2023-05-18T00:38:24.000Z,275.4
2023-05-18T00:39:50.000Z,275.27
2023-05-18T00:41:56.000Z,275.21
2023-05-18T00:43:23.000Z,275.15
2023-05-18T00:45:29.000Z,275.15
2023-05-18T00:46:56.000Z,275.09
2023-05-18T00:49:02.000Z,275.15
2023-05-18T00:50:29.000Z,275.09
2023-05-18T00:52:35.000Z,275.02
2023-05-18T00:54:01.000Z,275.02
2023-05-18T00:56:07.000Z,275.02
2023-05-18T00:58:58.000Z,274.96
2023-05-18T01:00:25.000Z,275.02
2023-05-18T01:02:31.000Z,274.96
2023-05-18T01:03:58.000Z,274.9
2023-05-18T01:06:04.000Z,274.84
2023-05-18T01:07:30.000Z,274.84
2023-05-18T01:09:36.000Z,274.77
2023-05-18T01:11:03.000Z,274.71
2023-05-18T01:13:09.000Z,274.77
2023-05-18T01:14:36.000Z,274.77
2023-05-18T01:16:42.000Z,274.71
2023-05-18T01:18:08.000Z,274.77
2023-05-18T01:20:14.000Z,274.71
2023-05-18T01:21:41.000Z,274.71
2023-05-18T01:23:47.000Z,274.77
2023-05-18T01:25:14.000Z,274.71
2023-05-18T01:27:20.000Z,274.84
2023-05-18T01:28:46.000Z,274.77
2023-05-18T01:30:52.000Z,274.77
2023-05-18T01:32:19.000Z,274.71
2023-05-18T01:34:25.000Z,274.65
2023-05-18T01:37:16.000Z,274.59
2023-05-18T01:38:43.000Z,274.52
2023-05-18T01:40:49.000Z,274.4
2023-05-18T01:42:15.000Z,274.34
2023-05-18T01:44:21.000Z,274.27
2023-05-18T01:45:48.000Z,274.34
2023-05-18T01:47:54.000Z,274.27
2023-05-18T01:49:21.000Z,274.21
2023-05-18T01:51:27.000Z,274.21
2023-05-18T01:52:53.000Z,274.21
2023-05-18T01:54:59.000Z,274.34
2023-05-18T01:56:26.000Z,274.46
2023-05-18T01:58:32.000Z,274.46
2023-05-18T01:59:58.000Z,274.46
2023-05-18T02:02:05.000Z,274.52
2023-05-18T02:03:31.000Z,274.46
2023-05-18T02:05:37.000Z,274.4
2023-05-18T02:07:04.000Z,274.27
2023-05-18T02:09:10.000Z,274.21
2023-05-18T02:10:37.000Z,274.27
2023-05-18T02:12:43.000Z,274.4
2023-05-18T02:15:34.000Z,274.4
2023-05-18T02:17:00.000Z,274.46
2023-05-18T02:19:07.000Z,274.4
2023-05-18T02:20:33.000Z,274.46
2023-05-18T02:22:39.000Z,274.46
2023-05-18T02:24:06.000Z,274.46
2023-05-18T02:26:12.000Z,274.21
2023-05-18T02:27:39.000Z,274.15
2023-05-18T02:29:45.000Z,274.34
2023-05-18T02:31:11.000Z,274.27
2023-05-18T02:33:17.000Z,274.27
2023-05-18T02:34:44.000Z,274.27
2023-05-18T02:36:50.000Z,274.21
2023-05-18T02:38:16.000Z,274.21
2023-05-18T02:40:23.000Z,274.15
2023-05-18T02:41:49.000Z,274.02
2023-05-18T02:43:55.000Z,273.96
2023-05-18T02:45:22.000Z,274.02
2023-05-18T02:47:28.000Z,274.15
2023-05-18T02:48:54.000Z,274.15
2023-05-18T02:51:01.000Z,274.09
2023-05-18T02:53:52.000Z,274.27
2023-05-18T02:55:18.000Z,274.21
2023-05-18T02:57:24.000Z,274.21
2023-05-18T02:58:51.000Z,274.21
2023-05-18T03:00:57.000Z,274.27
2023-05-18T03:02:24.000Z,274.34
2023-05-18T03:04:30.000Z,274.21
2023-05-18T03:05:56.000Z,274.09
2023-05-18T03:08:03.000Z,273.84
2023-05-18T03:09:29.000Z,273.84
2023-05-18T03:11:35.000Z,273.9
2023-05-18T03:13:02.000Z,273.9
2023-05-18T03:15:08.000Z,273.9
2023-05-18T03:16:34.000Z,273.9
2023-05-18T03:18:41.000Z,273.84
2023-05-18T03:20:07.000Z,274.02
2023-05-18T03:22:13.000Z,274.15
2023-05-18T03:23:40.000Z,274.15
2023-05-18T03:25:46.000Z,274.15
2023-05-18T03:27:13.000Z,274.15
2023-05-18T03:29:19.000Z,274.02
2023-05-18T03:32:10.000Z,274.15
2023-05-18T03:33:37.000Z,274.09
2023-05-18T03:35:43.000Z,274.09
2023-05-18T03:37:13.000Z,274.02
2023-05-18T03:39:19.000Z,273.96
2023-05-18T03:40:45.000Z,274.02
2023-05-18T03:42:51.000Z,274.09
2023-05-18T03:44:18.000Z,274.09
2023-05-18T03:46:24.000Z,273.9
2023-05-18T03:47:50.000Z,273.9
2023-05-18T03:49:57.000Z,273.9
2023-05-18T03:51:23.000Z,273.84
2023-05-18T03:53:29.000Z,273.77
2023-05-18T03:54:56.000Z,273.84
2023-05-18T03:57:02.000Z,273.84
2023-05-18T03:58:29.000Z,273.9
2023-05-18T04:00:35.000Z,273.96
2023-05-18T04:02:01.000Z,273.96
2023-05-18T04:04:08.000Z,273.9
2023-05-18T04:05:34.000Z,273.84
2023-05-18T04:07:41.000Z,273.84
2023-05-18T04:10:32.000Z,273.9
2023-05-18T04:11:58.000Z,273.96
2023-05-18T04:14:04.000Z,273.84
2023-05-18T04:15:31.000Z,273.96
2023-05-18T04:17:37.000Z,273.9
2023-05-18T04:19:03.000Z,273.96
2023-05-18T04:21:12.000Z,273.96
2023-05-18T04:22:38.000Z,274.02
2023-05-18T04:24:45.000Z,274.02
2023-05-18T04:26:11.000Z,274.02
2023-05-18T04:28:17.000Z,274.02
2023-05-18T04:29:44.000Z,274.02
2023-05-18T04:31:50.000Z,274.02
2023-05-18T04:33:16.000Z,274.09
2023-05-18T04:35:23.000Z,274.15
2023-05-18T04:36:49.000Z,274.15
2023-05-18T04:38:55.000Z,274.09
2023-05-18T04:40:22.000Z,274.15
2023-05-18T04:42:28.000Z,274.27
2023-05-18T04:43:54.000Z,274.21
2023-05-18T04:46:00.000Z,274.21
2023-05-18T04:48:52.000Z,274.21
2023-05-18T04:50:18.000Z,274.27
2023-05-18T04:52:24.000Z,274.27
2023-05-18T04:53:51.000Z,274.27
2023-05-18T04:55:57.000Z,274.21
2023-05-18T04:57:23.000Z,274.34
2023-05-18T04:59:30.000Z,274.4
2023-05-18T05:00:56.000Z,274.46
2023-05-18T05:03:02.000Z,274.65
2023-05-18T05:04:29.000Z,274.71
2023-05-18T05:06:35.000Z,274.9
2023-05-18T05:08:02.000Z,275.02
2023-05-18T05:10:08.000Z,275.09
2023-05-18T05:11:34.000Z,275.15
2023-05-18T05:13:40.000Z,275.27
2023-05-18T05:15:07.000Z,275.34
2023-05-18T05:17:13.000Z,275.52
2023-05-18T05:18:39.000Z,275.59
2023-05-18T05:20:46.000Z,275.65
2023-05-18T05:22:12.000Z,275.71
2023-05-18T05:24:18.000Z,275.84
2023-05-18T05:27:10.000Z,276.02
2023-05-18T05:28:36.000Z,276.09
2023-05-18T05:30:42.000Z,276.21
2023-05-18T05:32:09.000Z,276.46
2023-05-18T05:34:15.000Z,276.52
2023-05-18T05:35:41.000Z,276.59
2023-05-18T05:37:47.000Z,276.77
2023-05-18T05:39:14.000Z,276.84
2023-05-18T05:41:20.000Z,276.96
2023-05-18T05:42:47.000Z,277.02
2023-05-18T05:44:53.000Z,277.15
2023-05-18T05:46:19.000Z,277.27
2023-05-18T05:48:26.000Z,277.34
2023-05-18T05:49:52.000Z,277.46
2023-05-18T05:51:59.000Z,277.65
2023-05-18T05:53:25.000Z,277.59
2023-05-18T05:55:31.000Z,277.71
2023-05-18T05:56:58.000Z,277.9
2023-05-18T05:59:04.000Z,278.02
2023-05-18T06:00:30.000Z,278.02
2023-05-18T06:02:37.000Z,278.15
2023-05-18T06:05:28.000Z,278.09
2023-05-18T06:06:55.000Z,278.21
2023-05-18T06:09:01.000Z,278.21
2023-05-18T06:10:28.000Z,278.34
2023-05-18T06:12:34.000Z,278.4
2023-05-18T06:14:00.000Z,278.52
2023-05-18T06:16:07.000Z,278.65
2023-05-18T06:17:33.000Z,278.71
2023-05-18T06:19:39.000Z,278.71
2023-05-18T06:21:06.000Z,278.77
2023-05-18T06:23:12.000Z,278.9
2023-05-18T06:24:38.000Z,278.9
2023-05-18T06:26:44.000Z,279.09
2023-05-18T06:28:11.000Z,279.15
2023-05-18T06:30:17.000Z,279.27
2023-05-18T06:31:44.000Z,279.4
2023-05-18T06:33:50.000Z,279.46
2023-05-18T06:35:16.000Z,279.59
2023-05-18T06:37:22.000Z,279.59
2023-05-18T06:38:49.000Z,279.65
2023-05-18T06:40:55.000Z,279.71
2023-05-18T06:43:46.000Z,279.9
2023-05-18T06:45:13.000Z,279.9
2023-05-18T06:47:19.000Z,279.9
2023-05-18T06:48:45.000Z,280.02
2023-05-18T06:50:51.000Z,280.15
2023-05-18T06:52:18.000Z,280.27
2023-05-18T06:54:24.000Z,280.46
2023-05-18T06:55:51.000Z,280.46
2023-05-18T06:57:57.000Z,280.52
2023-05-18T06:59:23.000Z,280.65
2023-05-18T07:01:29.000Z,280.71
2023-05-18T07:02:56.000Z,280.96
2023-05-18T07:05:02.000Z,280.96
2023-05-18T07:06:29.000Z,280.9
2023-05-18T07:08:35.000Z,281.15
2023-05-18T07:10:01.000Z,281.15
2023-05-18T07:12:07.000Z,281.21
2023-05-18T07:13:34.000Z,281.15
2023-05-18T07:15:40.000Z,281.27
2023-05-18T07:17:07.000Z,281.46
2023-05-18T07:19:13.000Z,281.52
2023-05-18T07:22:04.000Z,281.59
2023-05-18T07:23:31.000Z,281.65
2023-05-18T07:25:37.000Z,281.77
2023-05-18T07:27:03.000Z,281.77
2023-05-18T07:29:09.000Z,281.96
2023-05-18T07:30:36.000Z,281.96
2023-05-18T07:32:42.000Z,282.02
2023-05-18T07:34:08.000Z,282.15
2023-05-18T07:36:15.000Z,282.27
2023-05-18T07:37:41.000Z,282.27
2023-05-18T07:39:47.000Z,282.34
2023-05-18T07:41:14.000Z,282.27
2023-05-18T07:43:20.000Z,282.4
2023-05-18T07:44:46.000Z,282.52
2023-05-18T07:46:52.000Z,282.71
2023-05-18T07:48:19.000Z,282.65
2023-05-18T07:50:25.000Z,282.71
2023-05-18T07:51:52.000Z,282.77
2023-05-18T07:53:58.000Z,282.71
2023-05-18T07:55:24.000Z,282.9
2023-05-18T07:57:30.000Z,282.96
2023-05-18T08:00:22.000Z,283.21
2023-05-18T08:01:48.000Z,283.15
2023-05-18T08:03:54.000Z,283.34
2023-05-18T08:05:21.000Z,283.46
2023-05-18T08:07:27.000Z,283.59
2023-05-18T08:08:54.000Z,283.59
2023-05-18T08:11:00.000Z,283.59
2023-05-18T08:12:26.000Z,283.65
2023-05-18T08:14:32.000Z,283.71
2023-05-18T08:15:59.000Z,283.84
2023-05-18T08:18:16.000Z,284.09
2023-05-18T08:19:42.000Z,284.21
2023-05-18T08:21:48.000Z,284.34
2023-05-18T08:23:15.000Z,284.46
2023-05-18T08:25:21.000Z,284.65
2023-05-18T08:26:47.000Z,284.65
2023-05-18T08:28:54.000Z,284.59
2023-05-18T08:30:20.000Z,284.59
2023-05-18T08:32:26.000Z,284.52
2023-05-18T08:33:53.000Z,284.59
2023-05-18T08:35:59.000Z,284.77
2023-05-18T08:38:50.000Z,284.9
2023-05-18T08:40:17.000Z,285.02
2023-05-18T08:42:23.000Z,285.27
2023-05-18T08:43:56.000Z,285.34
2023-05-18T08:46:02.000Z,285.34
2023-05-18T08:47:29.000Z,285.4
2023-05-18T08:49:35.000Z,285.52
2023-05-18T08:51:01.000Z,285.52
2023-05-18T08:53:07.000Z,285.46
2023-05-18T08:54:34.000Z,285.46
2023-05-18T08:56:40.000Z,285.52
2023-05-18T08:58:07.000Z,285.65
2023-05-18T09:00:13.000Z,285.65
2023-05-18T09:01:39.000Z,285.71
2023-05-18T09:03:45.000Z,285.9
2023-05-18T09:05:12.000Z,285.9
2023-05-18T09:07:18.000Z,285.84
2023-05-18T09:08:44.000Z,285.96
2023-05-18T09:10:51.000Z,285.96
2023-05-18T09:12:17.000Z,286.15
2023-05-18T09:14:24.000Z,286.15
2023-05-18T09:17:15.000Z,285.96
2023-05-18T09:18:41.000Z,286.02
2023-05-18T09:20:47.000Z,286.15
2023-05-18T09:22:14.000Z,286.15
2023-05-18T09:24:20.000Z,286.15
2023-05-18T09:25:49.000Z,285.96
2023-05-18T09:27:55.000Z,285.96
2023-05-18T09:29:22.000Z,286.09
2023-05-18T09:31:28.000Z,286.21
2023-05-18T09:32:55.000Z,286.27
2023-05-18T09:35:01.000Z,286.52
2023-05-18T09:36:27.000Z,286.59
2023-05-18T09:38:33.000Z,286.71
2023-05-18T09:40:00.000Z,286.65
2023-05-18T09:42:06.000Z,286.71
2023-05-18T09:43:32.000Z,286.84
2023-05-18T09:45:39.000Z,286.96
2023-05-18T09:47:05.000Z,287.09
2023-05-18T09:49:11.000Z,287.27
2023-05-18T09:50:38.000Z,287.4
2023-05-18T09:52:44.000Z,287.34
2023-05-18T09:55:36.000Z,287.52
2023-05-18T09:57:02.000Z,287.59
2023-05-18T09:59:15.000Z,287.52
2023-05-18T10:00:41.000Z,287.52
2023-05-18T10:02:47.000Z,287.52
2023-05-18T10:04:14.000Z,287.4
2023-05-18T10:06:20.000Z,287.4
2023-05-18T10:07:47.000Z,287.46
2023-05-18T10:09:53.000Z,287.4
2023-05-18T10:11:19.000Z,287.52
2023-05-18T10:13:25.000Z,287.52
2023-05-18T10:14:52.000Z,287.65
2023-05-18T10:16:58.000Z,287.65
2023-05-18T10:18:39.000Z,287.59
2023-05-18T10:20:45.000Z,287.52
2023-05-18T10:22:12.000Z,287.65
2023-05-18T10:24:18.000Z,287.84
2023-05-18T10:25:45.000Z,287.84
2023-05-18T10:27:51.000Z,287.9
2023-05-18T10:29:17.000Z,287.9
2023-05-18T10:31:23.000Z,287.9
2023-05-18T10:34:15.000Z,287.96
2023-05-18T10:35:42.000Z,288.02
2023-05-18T10:37:48.000Z,288.09
2023-05-18T10:39:14.000Z,288.02
2023-05-18T10:41:21.000Z,288.02
2023-05-18T10:42:47.000Z,288.02
2023-05-18T10:44:53.000Z,288.09
2023-05-18T10:46:20.000Z,288.09
2023-05-18T10:48:26.000Z,288.15
2023-05-18T10:49:53.000Z,288.27
2023-05-18T10:51:59.000Z,288.27
2023-05-18T10:53:25.000Z,288.4
2023-05-18T10:55:31.000Z,288.52
2023-05-18T10:56:58.000Z,288.52
2023-05-18T10:59:04.000Z,288.84
2023-05-18T11:00:31.000Z,288.84
2023-05-18T11:02:37.000Z,288.96
2023-05-18T11:04:04.000Z,288.84
2023-05-18T11:06:10.000Z,288.96
2023-05-18T11:07:37.000Z,289.09
2023-05-18T11:09:43.000Z,289.09
2023-05-18T11:12:34.000Z,289.09
2023-05-18T11:14:00.000Z,289.09
2023-05-18T11:16:07.000Z,288.96
2023-05-18T11:17:33.000Z,288.96
2023-05-18T11:19:40.000Z,289.34
2023-05-18T11:21:06.000Z,289.4
2023-05-18T11:23:12.000Z,289.59
2023-05-18T11:24:39.000Z,289.52
2023-05-18T11:26:45.000Z,289.59
2023-05-18T11:28:11.000Z,289.65
2023-05-18T11:30:17.000Z,289.96
2023-05-18T11:31:44.000Z,289.9
2023-05-18T11:33:50.000Z,289.59
2023-05-18T11:35:17.000Z,289.71
2023-05-18T11:37:23.000Z,289.96
2023-05-18T11:38:49.000Z,289.9
2023-05-18T11:40:55.000Z,290.09
2023-05-18T11:42:22.000Z,290.09
2023-05-18T11:44:28.000Z,290.15
2023-05-18T11:45:55.000Z,289.84
2023-05-18T11:48:03.000Z,289.84
2023-05-18T11:50:54.000Z,289.96
2023-05-18T11:52:21.000Z,290.09
2023-05-18T11:54:27.000Z,289.9
2023-05-18T11:55:54.000Z,289.96
2023-05-18T11:58:00.000Z,289.96
2023-05-18T11:59:26.000Z,289.96
2023-05-18T12:01:32.000Z,290.02
2023-05-18T12:02:59.000Z,290.09
2023-05-18T12:05:05.000Z,289.96
2023-05-18T12:06:32.000Z,289.96
2023-05-18T12:08:38.000Z,290.15
2023-05-18T12:10:05.000Z,290.4
2023-05-18T12:12:11.000Z,290.4
2023-05-18T12:13:37.000Z,290.4
2023-05-18T12:15:43.000Z,290.65
2023-05-18T12:17:10.000Z,290.52
2023-05-18T12:19:16.000Z,290.4
2023-05-18T12:20:43.000Z,290.4
2023-05-18T12:22:49.000Z,290.34
2023-05-18T12:24:16.000Z,290.4
2023-05-18T12:26:22.000Z,289.84
2023-05-18T12:29:13.000Z,290.4
2023-05-18T12:30:40.000Z,290.15
2023-05-18T12:32:46.000Z,289.96
2023-05-18T12:34:12.000Z,290.02
2023-05-18T12:36:19.000Z,290.27
2023-05-18T12:37:45.000Z,290.34
2023-05-18T12:39:51.000Z,290.34
2023-05-18T12:41:18.000Z,290.21
2023-05-18T12:43:24.000Z,290.4
2023-05-18T12:44:51.000Z,290.4
2023-05-18T12:46:57.000Z,290.52
2023-05-18T12:48:23.000Z,290.27
2023-05-18T12:50:29.000Z,290.34
2023-05-18T12:51:56.000Z,290.21
2023-05-18T12:54:02.000Z,290.46
2023-05-18T12:55:28.000Z,290.59
2023-05-18T12:57:35.000Z,290.59
2023-05-18T12:59:02.000Z,290.65
2023-05-18T13:01:08.000Z,290.71
2023-05-18T13:02:34.000Z,290.77
2023-05-18T13:04:41.000Z,290.71
2023-05-18T13:07:32.000Z,290.9
2023-05-18T13:08:59.000Z,290.96
2023-05-18T13:11:05.000Z,290.9
2023-05-18T13:12:39.000Z,290.84
2023-05-18T13:14:45.000Z,290.84
2023-05-18T13:16:11.000Z,290.84
2023-05-18T13:18:18.000Z,290.77
2023-05-18T13:19:44.000Z,290.71
2023-05-18T13:21:50.000Z,290.46
2023-05-18T13:23:17.000Z,290.4
2023-05-18T13:25:23.000Z,290.59
2023-05-18T13:26:50.000Z,290.4
2023-05-18T13:28:56.000Z,290.27
2023-05-18T13:30:22.000Z,290.21
2023-05-18T13:32:28.000Z,290.4
2023-05-18T13:33:55.000Z,290.09
2023-05-18T13:36:01.000Z,290.09
2023-05-18T13:37:28.000Z,290.27
2023-05-18T13:39:34.000Z,290.65
2023-05-18T13:41:01.000Z,290.84
2023-05-18T13:43:07.000Z,290.46
2023-05-18T13:46:01.000Z,290.84
2023-05-18T13:47:28.000Z,290.77
2023-05-18T13:49:34.000Z,290.84
2023-05-18T13:51:01.000Z,290.71
2023-05-18T13:53:07.000Z,291.02
2023-05-18T13:54:33.000Z,291.09
2023-05-18T13:56:40.000Z,291.21
2023-05-18T13:58:06.000Z,291.34
2023-05-18T14:00:12.000Z,291.34
2023-05-18T14:01:39.000Z,291.4
2023-05-18T14:03:45.000Z,291.4
2023-05-18T14:05:12.000Z,291.59
2023-05-18T14:07:18.000Z,291.65
2023-05-18T14:08:44.000Z,291.4
2023-05-18T14:10:50.000Z,291.71
2023-05-18T14:12:17.000Z,291.77
2023-05-18T14:14:23.000Z,291.52
2023-05-18T14:15:49.000Z,291.46
2023-05-18T14:17:56.000Z,291.52
2023-05-18T14:19:22.000Z,291.4
2023-05-18T14:21:28.000Z,291.21
2023-05-18T14:24:20.000Z,291.4
2023-05-18T14:25:46.000Z,291.65
2023-05-18T14:27:53.000Z,291.65
2023-05-18T14:29:19.000Z,291.65
2023-05-18T14:31:25.000Z,291.15
2023-05-18T14:32:52.000Z,291.4
2023-05-18T14:34:58.000Z,291.65
2023-05-18T14:36:24.000Z,292.02
2023-05-18T14:38:31.000Z,291.9
2023-05-18T14:39:57.000Z,292.09
2023-05-18T14:42:03.000Z,291.9
2023-05-18T14:43:30.000Z,291.96
2023-05-18T14:45:36.000Z,292.09
2023-05-18T14:47:02.000Z,291.9
2023-05-18T14:49:09.000Z,291.9
2023-05-18T14:50:35.000Z,291.71
2023-05-18T14:52:43.000Z,291.46
2023-05-18T14:54:09.000Z,291.52
2023-05-18T14:56:15.000Z,291.46
2023-05-18T14:57:42.000Z,291.46
2023-05-18T14:59:48.000Z,291.4
2023-05-18T15:02:39.000Z,291.09
2023-05-18T15:04:06.000Z,291.09
2023-05-18T15:06:12.000Z,291.15
2023-05-18T15:07:39.000Z,291.21
2023-05-18T15:09:45.000Z,291.4
2023-05-18T15:11:11.000Z,291.4
2023-05-18T15:13:17.000Z,291.27
2023-05-18T15:14:44.000Z,291.21
2023-05-18T15:16:50.000Z,290.84
2023-05-18T15:18:17.000Z,290.71
2023-05-18T15:20:23.000Z,290.52
2023-05-18T15:21:49.000Z,290.46
2023-05-18T15:23:55.000Z,290.84
2023-05-18T15:25:22.000Z,290.84
2023-05-18T15:27:28.000Z,291.09
2023-05-18T15:28:55.000Z,291.15
2023-05-18T15:31:01.000Z,291.09
2023-05-18T15:32:27.000Z,290.96
2023-05-18T15:34:34.000Z,291.09
2023-05-18T15:36:00.000Z,291.15
2023-05-18T15:38:07.000Z,291.21
2023-05-18T15:40:58.000Z,291.4
2023-05-18T15:42:24.000Z,291.15
2023-05-18T15:44:31.000Z,291.34
2023-05-18T15:45:57.000Z,291.27
2023-05-18T15:48:03.000Z,291.21
2023-05-18T15:49:30.000Z,291.4
2023-05-18T15:51:36.000Z,291.59
2023-05-18T15:53:03.000Z,291.77
2023-05-18T15:55:09.000Z,291.59
2023-05-18T15:56:35.000Z,291.52
2023-05-18T15:58:41.000Z,291.52
2023-05-18T16:00:08.000Z,291.59
2023-05-18T16:02:14.000Z,291.15
2023-05-18T16:03:41.000Z,291.09
2023-05-18T16:05:47.000Z,291.21
2023-05-18T16:07:13.000Z,291.4
2023-05-18T16:09:20.000Z,291.52
2023-05-18T16:10:46.000Z,291.4
2023-05-18T16:12:52.000Z,291.09
2023-05-18T16:14:19.000Z,291.15
2023-05-18T16:16:25.000Z,291.09
2023-05-18T16:19:16.000Z,291.34
2023-05-18T16:20:43.000Z,291.52
2023-05-18T16:22:49.000Z,291.71
2023-05-18T16:24:15.000Z,291.34
2023-05-18T16:26:22.000Z,291.52
2023-05-18T16:27:48.000Z,291.52
2023-05-18T16:29:54.000Z,291.46
2023-05-18T16:31:21.000Z,291.52
2023-05-18T16:33:27.000Z,291.15
2023-05-18T16:34:53.000Z,291.15
2023-05-18T16:37:00.000Z,291.15
2023-05-18T16:38:26.000Z,290.96
2023-05-18T16:40:32.000Z,291.21
2023-05-18T16:41:59.000Z,291.21
2023-05-18T16:44:05.000Z,291.21
2023-05-18T16:45:31.000Z,291.27
2023-05-18T16:47:37.000Z,291.02
2023-05-18T16:49:04.000Z,291.15
2023-05-18T16:51:10.000Z,291.02
2023-05-18T16:52:37.000Z,290.96
2023-05-18T16:54:43.000Z,290.84
2023-05-18T16:57:34.000Z,290.71
2023-05-18T16:59:01.000Z,290.65
2023-05-18T17:01:07.000Z,290.52
2023-05-18T17:02:50.000Z,290.4
2023-05-18T17:04:57.000Z,290.27
2023-05-18T17:06:23.000Z,290.27
2023-05-18T17:08:29.000Z,290.27
2023-05-18T17:09:56.000Z,290.34
2023-05-18T17:12:02.000Z,290.21
2023-05-18T17:13:28.000Z,290.27
2023-05-18T17:15:34.000Z,290.21
2023-05-18T17:17:01.000Z,290.15
2023-05-18T17:19:07.000Z,289.96
2023-05-18T17:20:34.000Z,289.96
2023-05-18T17:22:40.000Z,289.84
2023-05-18T17:24:06.000Z,289.71
2023-05-18T17:26:12.000Z,289.77
2023-05-18T17:27:39.000Z,289.71
2023-05-18T17:29:45.000Z,289.4
2023-05-18T17:31:11.000Z,289.4
2023-05-18T17:33:18.000Z,289.21
2023-05-18T17:36:09.000Z,289.02
2023-05-18T17:37:35.000Z,288.96
2023-05-18T17:39:41.000Z,288.84
2023-05-18T17:41:08.000Z,288.77
2023-05-18T17:43:14.000Z,288.71
2023-05-18T17:44:40.000Z,288.59
2023-05-18T17:46:47.000Z,288.46
2023-05-18T17:48:14.000Z,288.46
2023-05-18T17:50:20.000Z,288.34
2023-05-18T17:51:47.000Z,288.27
2023-05-18T17:53:53.000Z,288.27
2023-05-18T17:55:19.000Z,288.09
2023-05-18T17:57:26.000Z,288.09
2023-05-18T17:58:52.000Z,288.09
2023-05-18T18:00:58.000Z,287.96
2023-05-18T18:02:25.000Z,287.96
2023-05-18T18:04:31.000Z,287.96
2023-05-18T18:05:57.000Z,287.9
2023-05-18T18:08:04.000Z,287.84
2023-05-18T18:09:30.000Z,287.65
2023-05-18T18:11:36.000Z,287.65
2023-05-18T18:14:28.000Z,287.52
2023-05-18T18:15:54.000Z,287.59
2023-05-18T18:18:00.000Z,287.46
2023-05-18T18:19:27.000Z,287.46
2023-05-18T18:21:33.000Z,287.4
2023-05-18T18:23:00.000Z,287.34
2023-05-18T18:25:06.000Z,287.27
2023-05-18T18:26:32.000Z,287.15
2023-05-18T18:28:38.000Z,287.09
2023-05-18T18:30:05.000Z,287.15
2023-05-18T18:32:11.000Z,287.09
2023-05-18T18:33:37.000Z,287.02
2023-05-18T18:35:44.000Z,287.02
2023-05-18T18:37:10.000Z,287.02
2023-05-18T18:39:16.000Z,286.96
2023-05-18T18:40:43.000Z,286.9
2023-05-18T18:42:49.000Z,286.84
2023-05-18T18:44:15.000Z,286.84
2023-05-18T18:46:22.000Z,286.84
2023-05-18T18:47:48.000Z,286.77
2023-05-18T18:49:54.000Z,286.77
2023-05-18T18:52:45.000Z,286.59
2023-05-18T18:54:12.000Z,286.52
2023-05-18T18:56:18.000Z,286.52
2023-05-18T18:57:47.000Z,286.52
2023-05-18T18:59:54.000Z,286.4
2023-05-18T19:01:20.000Z,286.4
2023-05-18T19:03:26.000Z,286.21
2023-05-18T19:04:53.000Z,286.15
2023-05-18T19:06:59.000Z,286.21
2023-05-18T19:08:25.000Z,286.15
2023-05-18T19:10:32.000Z,285.96
2023-05-18T19:11:58.000Z,285.96
2023-05-18T19:14:04.000Z,285.96
2023-05-18T19:15:31.000Z,285.96
2023-05-18T19:17:37.000Z,285.77
2023-05-18T19:19:04.000Z,285.77
2023-05-18T19:21:10.000Z,285.65
2023-05-18T19:22:37.000Z,285.65
2023-05-18T19:24:43.000Z,285.59
2023-05-18T19:26:09.000Z,285.65
2023-05-18T19:28:16.000Z,285.52
2023-05-18T19:31:07.000Z,285.52
2023-05-18T19:32:33.000Z,285.46
2023-05-18T19:34:39.000Z,285.4
2023-05-18T19:36:06.000Z,285.4
2023-05-18T19:38:12.000Z,285.34
2023-05-18T19:39:39.000Z,285.34
2023-05-18T19:41:45.000Z,285.4
2023-05-18T19:43:11.000Z,285.27
2023-05-18T19:45:17.000Z,285.09
2023-05-18T19:46:44.000Z,285.02
2023-05-18T19:48:50.000Z,284.9
2023-05-18T19:50:20.000Z,284.9
2023-05-18T19:52:26.000Z,284.77
2023-05-18T19:53:53.000Z,284.77
2023-05-18T19:55:59.000Z,284.84
2023-05-18T19:57:25.000Z,284.84
2023-05-18T19:59:31.000Z,284.84
2023-05-18T20:00:58.000Z,284.84
2023-05-18T20:03:04.000Z,284.59
2023-05-18T20:04:31.000Z,284.4
2023-05-18T20:06:37.000Z,284.09
2023-05-18T20:09:28.000Z,283.9
2023-05-18T20:10:55.000Z,283.9
2023-05-18T20:13:01.000Z,283.59
2023-05-18T20:14:28.000Z,283.52
2023-05-18T20:16:34.000Z,283.46
2023-05-18T20:18:00.000Z,283.46
2023-05-18T20:20:06.000Z,283.21
2023-05-18T20:21:33.000Z,283.15
2023-05-18T20:23:39.000Z,283.27
2023-05-18T20:25:05.000Z,283.09
2023-05-18T20:27:12.000Z,283.34
2023-05-18T20:28:38.000Z,283.34
2023-05-18T20:30:44.000Z,282.96
2023-05-18T20:32:11.000Z,282.84
2023-05-18T20:34:17.000Z,282.84
2023-05-18T20:35:43.000Z,282.77
2023-05-18T20:37:50.000Z,282.52
2023-05-18T20:39:16.000Z,282.46
2023-05-18T20:41:22.000Z,282.52
2023-05-18T20:42:49.000Z,282.71
2023-05-18T20:44:55.000Z,282.65
2023-05-18T20:47:46.000Z,282.59
2023-05-18T20:49:13.000Z,282.59
2023-05-18T20:51:19.000Z,282.4
2023-05-18T20:52:47.000Z,282.4
2023-05-18T20:54:53.000Z,282.27
2023-05-18T20:56:20.000Z,282.15
2023-05-18T20:58:26.000Z,282.09
2023-05-18T20:59:52.000Z,282.02
2023-05-18T21:01:58.000Z,282.09
2023-05-18T21:03:25.000Z,282.15
2023-05-18T21:05:31.000Z,281.96
2023-05-18T21:06:58.000Z,281.96
2023-05-18T21:09:04.000Z,282.15
2023-05-18T21:10:30.000Z,282.15
2023-05-18T21:12:37.000Z,282.21
2023-05-18T21:14:04.000Z,282.09
2023-05-18T21:16:10.000Z,281.9
2023-05-18T21:17:36.000Z,281.84
2023-05-18T21:19:43.000Z,281.84
2023-05-18T21:21:09.000Z,281.96
2023-05-18T21:23:15.000Z,281.9
2023-05-18T21:26:06.000Z,281.71
2023-05-18T21:27:33.000Z,281.71
2023-05-18T21:29:39.000Z,281.77
2023-05-18T21:31:06.000Z,281.71
2023-05-18T21:33:12.000Z,281.65
2023-05-18T21:34:38.000Z,281.65
2023-05-18T21:36:47.000Z,281.59
2023-05-18T21:38:14.000Z,281.59
2023-05-18T21:40:20.000Z,281.59
2023-05-18T21:41:46.000Z,281.52
2023-05-18T21:43:53.000Z,281.65
2023-05-18T21:45:19.000Z,281.84
2023-05-18T21:47:25.000Z,281.71
2023-05-18T21:48:52.000Z,281.65
2023-05-18T21:50:58.000Z,281.59
2023-05-18T21:52:24.000Z,281.52
2023-05-18T21:54:30.000Z,281.52
2023-05-18T21:55:57.000Z,281.59
2023-05-18T21:58:03.000Z,281.65
2023-05-18T21:59:30.000Z,281.59
2023-05-18T22:01:36.000Z,281.84
2023-05-18T22:04:27.000Z,281.77
2023-05-18T22:05:54.000Z,281.77
2023-05-18T22:08:00.000Z,281.77
2023-05-18T22:09:26.000Z,281.84
2023-05-18T22:11:33.000Z,281.9
2023-05-18T22:12:59.000Z,281.84
2023-05-18T22:15:05.000Z,281.59
2023-05-18T22:16:32.000Z,281.65
2023-05-18T22:18:38.000Z,281.59
2023-05-18T22:20:04.000Z,281.65
2023-05-18T22:22:10.000Z,281.71
2023-05-18T22:23:54.000Z,281.65
2023-05-18T22:26:00.000Z,281.59
2023-05-18T22:27:26.000Z,281.59
2023-05-18T22:29:32.000Z,281.4
2023-05-18T22:30:59.000Z,281.46
2023-05-18T22:33:05.000Z,281.46
2023-05-18T22:34:31.000Z,281.46
2023-05-18T22:36:38.000Z,281.34
2023-05-18T22:38:04.000Z,281.27
2023-05-18T22:40:10.000Z,281.4
2023-05-18T22:43:01.000Z,281.09
2023-05-18T22:44:28.000Z,281.15
2023-05-18T22:46:34.000Z,281.27
2023-05-18T22:48:01.000Z,281.21
2023-05-18T22:50:07.000Z,281.27
2023-05-18T22:51:33.000Z,281.27